createdAt,value
2023-04-16T00:00:32.367Z,90.18
2023-04-16T00:02:59.568Z,89.48
2023-04-16T00:05:27.594Z,89.50
2023-04-16T00:07:54.565Z,89.78
2023-04-16T00:10:21.582Z,90.10
2023-04-16T00:12:48.534Z,89.84
2023-04-16T00:15:15.464Z,90.05
2023-04-16T00:17:42.455Z,90.11
2023-04-16T00:20:10.601Z,90.20
2023-04-16T00:22:38.046Z,89.81
2023-04-16T00:25:05.811Z,89.29
2023-04-16T00:27:32.775Z,89.41
2023-04-16T00:29:59.813Z,89.73
2023-04-16T00:32:26.865Z,90.07
2023-04-16T00:34:54.083Z,90.09
2023-04-16T00:37:21.119Z,90.42
2023-04-16T00:39:48.207Z,90.94
2023-04-16T00:42:15.245Z,90.68
2023-04-16T00:44:42.285Z,91.14
2023-04-16T00:47:09.646Z,91.04
2023-04-16T00:49:37.163Z,91.43
2023-04-16T00:52:04.699Z,91.66
2023-04-16T00:54:32.755Z,91.53
2023-04-16T00:57:00.445Z,91.44
2023-04-16T00:59:29.320Z,91.19
2023-04-16T01:01:56.433Z,91.46
2023-04-16T01:04:24.140Z,91.98
2023-04-16T01:06:51.719Z,92.24
2023-04-16T01:09:18.954Z,91.86
2023-04-16T01:11:46.202Z,92.06
2023-04-16T01:14:13.251Z,92.32
2023-04-16T01:16:40.100Z,92.55
2023-04-16T01:19:07.405Z,92.71
2023-04-16T01:21:34.740Z,92.73
2023-04-16T01:24:05.459Z,92.60
2023-04-16T01:26:32.699Z,92.37
2023-04-16T01:29:00.113Z,93.01
2023-04-16T01:31:27.121Z,92.60
2023-04-16T01:33:54.013Z,93.01
2023-04-16T01:36:20.963Z,92.79
2023-04-16T01:38:48.136Z,92.68
2023-04-16T01:41:15.248Z,92.73
2023-04-16T01:43:42.927Z,92.60
2023-04-16T01:46:15.727Z,92.89
2023-04-16T01:48:43.292Z,92.84
2023-04-16T01:51:10.600Z,92.82
2023-04-16T01:53:37.898Z,92.86
2023-04-16T01:56:05.921Z,93.10
2023-04-16T01:58:33.621Z,92.93
2023-04-16T02:01:00.990Z,93.15
2023-04-16T02:03:28.470Z,93.28
2023-04-16T02:05:55.537Z,93.05
2023-04-16T02:08:22.894Z,93.05
2023-04-16T02:10:51.305Z,92.88
2023-04-16T02:13:18.312Z,92.41
2023-04-16T02:15:47.905Z,92.73
2023-04-16T02:18:15.173Z,92.65
2023-04-16T02:20:47.123Z,92.76
2023-04-16T02:23:17.452Z,93.26
2023-04-16T02:25:46.892Z,93.09
2023-04-16T02:28:16.208Z,92.52
2023-04-16T02:30:58.062Z,93.21
2023-04-16T02:33:36.854Z,93.23
2023-04-16T02:36:04.002Z,93.03
2023-04-16T02:38:31.423Z,92.62
2023-04-16T02:40:59.737Z,92.96
2023-04-16T02:43:26.933Z,93.06
2023-04-16T02:45:54.012Z,93.20
2023-04-16T02:48:20.965Z,92.63
2023-04-16T02:50:47.976Z,92.65
2023-04-16T02:53:15.097Z,93.06
2023-04-16T02:55:42.210Z,93.37
2023-04-16T02:58:09.420Z,93.55
2023-04-16T03:00:36.395Z,94.37
2023-04-16T03:03:03.762Z,94.17
2023-04-16T03:05:30.615Z,94.46
2023-04-16T03:07:57.641Z,94.84
2023-04-16T03:10:25.424Z,95.03
2023-04-16T03:12:52.401Z,95.04
2023-04-16T03:15:19.417Z,95.31
2023-04-16T03:17:54.364Z,96.28
2023-04-16T03:20:25.525Z,95.84
2023-04-16T03:23:02.077Z,95.93
2023-04-16T03:25:35.918Z,96.10
2023-04-16T03:28:04.132Z,95.76
2023-04-16T03:30:31.866Z,95.89
2023-04-16T03:32:58.868Z,95.90
2023-04-16T03:35:26.294Z,95.45
2023-04-16T03:37:53.237Z,95.46
2023-04-16T03:40:20.481Z,94.91
2023-04-16T03:42:47.352Z,95.44
2023-04-16T03:45:15.580Z,96.22
2023-04-16T03:47:42.469Z,95.67
2023-04-16T03:50:10.284Z,95.43
2023-04-16T03:52:37.241Z,94.86
2023-04-16T03:55:04.676Z,95.58
2023-04-16T03:57:31.756Z,95.75
2023-04-16T03:59:58.769Z,95.76
2023-04-16T04:02:26.320Z,96.09
2023-04-16T04:04:53.623Z,95.75
2023-04-16T04:07:20.946Z,95.74
2023-04-16T04:09:47.871Z,96.18
2023-04-16T04:12:14.912Z,95.78
2023-04-16T04:14:42.060Z,95.97
2023-04-16T04:17:09.440Z,95.57
2023-04-16T04:19:38.826Z,95.20
2023-04-16T04:22:07.200Z,95.38
2023-04-16T04:24:34.162Z,95.36
2023-04-16T04:27:02.444Z,95.05
2023-04-16T04:29:29.681Z,95.13
2023-04-16T04:31:56.744Z,95.27
2023-04-16T04:34:23.749Z,95.33
2023-04-16T04:36:51.048Z,95.41
2023-04-16T04:39:18.161Z,95.81
2023-04-16T04:41:44.953Z,95.93
2023-04-16T04:44:11.932Z,95.99
2023-04-16T04:46:38.870Z,96.01
2023-04-16T04:49:06.152Z,96.28
2023-04-16T04:51:33.520Z,95.84
2023-04-16T04:54:00.725Z,96.43
2023-04-16T04:56:27.568Z,95.91
2023-04-16T04:58:55.240Z,96.75
2023-04-16T05:01:22.198Z,96.45
2023-04-16T05:03:49.107Z,96.28
2023-04-16T05:06:16.984Z,96.65
2023-04-16T05:08:43.938Z,96.68
2023-04-16T05:11:11.065Z,96.86
2023-04-16T05:13:37.907Z,96.58
2023-04-16T05:16:05.380Z,96.64
2023-04-16T05:18:33.860Z,96.37
2023-04-16T05:21:01.197Z,96.57
2023-04-16T05:23:28.342Z,96.83
2023-04-16T05:25:55.115Z,96.60
2023-04-16T05:28:22.039Z,95.86
2023-04-16T05:30:48.912Z,95.33
2023-04-16T05:33:16.134Z,95.45
2023-04-16T05:35:43.778Z,95.33
2023-04-16T05:38:11.906Z,95.77
2023-04-16T05:40:38.912Z,95.35
2023-04-16T05:43:05.880Z,95.83
2023-04-16T05:45:33.790Z,95.46
2023-04-16T05:48:01.283Z,95.43
2023-04-16T05:50:28.187Z,95.48
2023-04-16T05:52:55.441Z,94.85
2023-04-16T05:55:22.902Z,94.97
2023-04-16T05:57:50.085Z,95.17
2023-04-16T06:00:18.001Z,95.54
2023-04-16T06:02:45.945Z,95.63
2023-04-16T06:05:15.174Z,95.61
2023-04-16T06:07:42.666Z,94.83
2023-04-16T06:10:10.412Z,95.00
2023-04-16T06:12:38.078Z,94.80
2023-04-16T06:15:06.209Z,93.51
2023-04-16T06:17:33.319Z,93.33
2023-04-16T06:20:00.612Z,93.51
2023-04-16T06:22:27.670Z,93.43
2023-04-16T06:24:55.400Z,93.52
2023-04-16T06:27:22.388Z,93.45
2023-04-16T06:29:49.621Z,93.02
2023-04-16T06:32:18.457Z,93.30
2023-04-16T06:34:45.655Z,93.18
2023-04-16T06:37:13.129Z,91.74
2023-04-16T06:39:40.393Z,90.95
2023-04-16T06:42:07.846Z,90.74
2023-04-16T06:44:37.232Z,88.58
2023-04-16T06:47:04.326Z,89.17
2023-04-16T06:49:31.303Z,88.30
2023-04-16T06:51:58.272Z,88.01
2023-04-16T06:54:25.089Z,87.02
2023-04-16T06:56:51.946Z,85.69
2023-04-16T06:59:18.976Z,86.51
2023-04-16T07:01:45.864Z,87.21
2023-04-16T07:04:13.101Z,86.13
2023-04-16T07:06:40.420Z,83.54
2023-04-16T07:09:07.339Z,85.67
2023-04-16T07:11:34.830Z,83.94
2023-04-16T07:14:02.006Z,83.55
2023-04-16T07:16:28.960Z,84.12
2023-04-16T07:18:56.054Z,82.55
2023-04-16T07:21:23.229Z,82.01
2023-04-16T07:23:50.066Z,82.69
2023-04-16T07:26:16.907Z,81.57
2023-04-16T07:28:43.868Z,78.85
2023-04-16T07:31:11.184Z,77.88
2023-04-16T07:33:38.039Z,77.21
2023-04-16T07:36:05.515Z,75.85
2023-04-16T07:38:32.356Z,74.48
2023-04-16T07:40:59.191Z,75.71
2023-04-16T07:43:26.097Z,73.57
2023-04-16T07:45:53.052Z,71.94
2023-04-16T07:48:19.988Z,70.20
2023-04-16T07:50:47.029Z,71.41
2023-04-16T07:53:13.986Z,69.57
2023-04-16T07:55:41.327Z,70.24
2023-04-16T07:58:09.856Z,69.75
2023-04-16T08:00:36.860Z,69.17
2023-04-16T08:03:04.368Z,68.62
2023-04-16T08:05:31.789Z,67.25
2023-04-16T08:07:58.947Z,67.24
2023-04-16T08:10:26.179Z,66.32
2023-04-16T08:12:53.224Z,65.02
2023-04-16T08:15:20.453Z,64.90
2023-04-16T08:17:47.670Z,64.74
2023-04-16T08:20:17.043Z,64.21
2023-04-16T08:22:46.769Z,64.49
2023-04-16T08:25:14.782Z,63.85
2023-04-16T08:27:41.769Z,64.38
2023-04-16T08:30:08.764Z,62.49
2023-04-16T08:32:35.872Z,62.59
2023-04-16T08:35:03.166Z,62.69
2023-04-16T08:37:30.113Z,62.52
2023-04-16T08:39:57.128Z,62.13
2023-04-16T08:42:32.735Z,60.59
2023-04-16T08:45:14.283Z,58.60
2023-04-16T08:47:42.379Z,61.03
2023-04-16T08:50:12.933Z,63.28
2023-04-16T08:52:47.349Z,63.68
2023-04-16T08:55:15.225Z,63.45
2023-04-16T08:57:49.872Z,63.10
2023-04-16T09:00:17.363Z,63.42
2023-04-16T09:02:44.697Z,63.84
2023-04-16T09:05:17.380Z,63.16
2023-04-16T09:07:46.755Z,63.48
2023-04-16T09:10:15.923Z,61.38
2023-04-16T09:12:43.858Z,61.96
2023-04-16T09:15:12.506Z,58.58
2023-04-16T09:17:40.487Z,58.54
2023-04-16T09:20:11.109Z,55.43
2023-04-16T09:22:40.348Z,57.10
2023-04-16T09:25:08.675Z,53.82
2023-04-16T09:27:36.516Z,52.42
2023-04-16T09:30:22.496Z,55.15
2023-04-16T09:32:51.381Z,54.99
2023-04-16T09:35:21.951Z,53.97
2023-04-16T09:37:58.969Z,53.07
2023-04-16T09:40:27.767Z,53.27
2023-04-16T09:42:58.899Z,50.67
2023-04-16T09:45:25.934Z,50.80
2023-04-16T09:47:52.979Z,51.44
2023-04-16T09:50:20.833Z,51.47
2023-04-16T09:52:54.210Z,50.88
2023-04-16T09:55:27.600Z,52.73
2023-04-16T09:58:01.794Z,54.15
2023-04-16T10:00:31.754Z,55.15
2023-04-16T10:03:06.530Z,54.54
2023-04-16T10:05:33.775Z,55.03
2023-04-16T10:08:02.431Z,55.54
2023-04-16T10:10:29.956Z,54.31
2023-04-16T10:12:57.132Z,53.59
2023-04-16T10:15:24.591Z,52.81
2023-04-16T10:17:52.387Z,52.16
2023-04-16T10:20:20.095Z,52.11
2023-04-16T10:22:47.369Z,49.68
2023-04-16T10:25:15.132Z,48.80
2023-04-16T10:27:42.097Z,49.27
2023-04-16T10:30:11.298Z,48.66
2023-04-16T10:32:38.798Z,46.41
2023-04-16T10:35:07.140Z,47.30
2023-04-16T10:37:34.335Z,45.82
2023-04-16T10:40:01.563Z,45.06
2023-04-16T10:42:28.967Z,44.24
2023-04-16T10:45:00.686Z,43.97
2023-04-16T10:47:29.665Z,42.75
2023-04-16T10:49:58.550Z,41.90
2023-04-16T10:52:29.616Z,41.12
2023-04-16T10:55:00.621Z,39.94
2023-04-16T10:57:30.427Z,39.53
2023-04-16T10:59:57.470Z,36.55
2023-04-16T11:02:29.241Z,37.45
2023-04-16T11:04:58.225Z,37.47
2023-04-16T11:07:36.203Z,35.26
2023-04-16T11:10:13.069Z,33.05
2023-04-16T11:12:46.678Z,31.95
2023-04-16T11:15:16.526Z,34.21
2023-04-16T11:17:46.382Z,33.66
2023-04-16T11:20:20.416Z,33.79
2023-04-16T11:22:53.467Z,34.52
2023-04-16T11:25:31.852Z,34.03
2023-04-16T11:28:01.719Z,31.95
2023-04-16T11:30:36.919Z,31.41
2023-04-16T11:33:09.982Z,32.01
2023-04-16T11:35:39.948Z,33.29
2023-04-16T11:38:07.918Z,34.09
2023-04-16T11:40:36.742Z,35.03
2023-04-16T11:43:14.211Z,35.87
2023-04-16T11:46:07.430Z,38.60
2023-04-16T11:48:51.452Z,37.75
2023-04-16T11:51:19.479Z,37.21
2023-04-16T11:53:54.283Z,35.77
2023-04-16T11:56:32.572Z,36.15
2023-04-16T11:59:12.042Z,35.58
2023-04-16T12:01:40.838Z,35.82
2023-04-16T12:04:09.233Z,34.98
2023-04-16T12:06:36.806Z,34.07
2023-04-16T12:09:25.719Z,31.58
2023-04-16T12:11:52.705Z,31.19
2023-04-16T12:14:20.736Z,31.80
2023-04-16T12:16:48.316Z,32.71
2023-04-16T12:19:15.935Z,33.16
2023-04-16T12:21:45.610Z,32.61
2023-04-16T12:24:15.211Z,31.27
2023-04-16T12:26:47.365Z,31.93
2023-04-16T12:29:16.137Z,31.10
2023-04-16T12:31:43.165Z,32.09
2023-04-16T12:34:10.732Z,32.27
2023-04-16T12:36:39.076Z,32.25
2023-04-16T12:39:06.406Z,31.47
2023-04-16T12:41:37.107Z,32.89
2023-04-16T12:44:18.184Z,32.61
2023-04-16T12:46:45.688Z,32.27
2023-04-16T12:49:12.723Z,32.57
2023-04-16T12:51:39.822Z,32.46
2023-04-16T12:54:08.411Z,32.69
2023-04-16T12:56:36.668Z,33.00
2023-04-16T12:59:04.111Z,33.21
2023-04-16T13:01:31.274Z,31.84
2023-04-16T13:03:58.717Z,30.79
2023-04-16T13:06:26.583Z,30.80
2023-04-16T13:08:53.765Z,31.42
2023-04-16T13:11:21.128Z,30.98
2023-04-16T13:13:48.231Z,31.77
2023-04-16T13:16:15.640Z,32.29
2023-04-16T13:18:43.210Z,32.84
2023-04-16T13:21:11.693Z,33.96
2023-04-16T13:23:38.740Z,34.16
2023-04-16T13:26:05.810Z,34.36
2023-04-16T13:28:32.766Z,34.00
2023-04-16T13:31:00.721Z,33.76
2023-04-16T13:33:29.050Z,33.67
2023-04-16T13:36:12.344Z,33.04
2023-04-16T13:38:39.882Z,33.10
2023-04-16T13:41:18.706Z,33.97
2023-04-16T13:43:59.283Z,34.09
2023-04-16T13:46:27.829Z,33.89
2023-04-16T13:48:56.094Z,33.80
2023-04-16T13:51:23.289Z,34.13
2023-04-16T13:53:50.741Z,34.18
2023-04-16T13:56:17.662Z,34.23
2023-04-16T13:58:44.653Z,34.60
2023-04-16T14:01:12.375Z,33.93
2023-04-16T14:03:40.949Z,35.03
2023-04-16T14:06:08.421Z,35.46
2023-04-16T14:08:35.374Z,36.10
2023-04-16T14:11:02.407Z,36.28
2023-04-16T14:13:29.485Z,35.80
2023-04-16T14:15:57.414Z,36.17
2023-04-16T14:18:24.449Z,37.27
2023-04-16T14:20:51.613Z,37.51
2023-04-16T14:23:18.826Z,37.38
2023-04-16T14:25:45.792Z,37.47
2023-04-16T14:28:14.311Z,37.65
2023-04-16T14:30:42.932Z,37.58
2023-04-16T14:33:09.999Z,38.24
2023-04-16T14:35:37.045Z,38.98
2023-04-16T14:38:03.885Z,39.05
2023-04-16T14:40:30.824Z,39.31
2023-04-16T14:42:57.976Z,39.46
2023-04-16T14:45:29.628Z,39.68
2023-04-16T14:47:57.610Z,40.36
2023-04-16T14:50:24.530Z,41.45
2023-04-16T14:52:51.982Z,41.94
2023-04-16T14:55:18.941Z,42.66
2023-04-16T14:57:45.883Z,42.51
2023-04-16T15:00:17.400Z,42.78
2023-04-16T15:02:45.598Z,42.88
2023-04-16T15:05:12.950Z,42.99
2023-04-16T15:07:40.786Z,43.63
2023-04-16T15:10:09.551Z,44.02
2023-04-16T15:12:38.820Z,44.08
2023-04-16T15:15:09.812Z,44.44
2023-04-16T15:17:37.328Z,44.60
2023-04-16T15:20:11.100Z,44.66
2023-04-16T15:22:38.760Z,45.29
2023-04-16T15:25:07.384Z,45.89
2023-04-16T15:27:34.304Z,46.53
2023-04-16T15:30:01.373Z,46.85
2023-04-16T15:32:28.796Z,47.18
2023-04-16T15:34:56.046Z,47.24
2023-04-16T15:37:23.057Z,47.60
2023-04-16T15:39:50.502Z,48.15
2023-04-16T15:42:17.687Z,48.74
2023-04-16T15:44:44.975Z,49.11
2023-04-16T15:47:12.522Z,49.32
2023-04-16T15:49:40.264Z,49.36
2023-04-16T15:52:07.964Z,49.49
2023-04-16T15:54:35.539Z,50.17
2023-04-16T15:57:03.045Z,50.04
2023-04-16T15:59:30.289Z,50.27
2023-04-16T16:01:57.928Z,50.38
2023-04-16T16:04:26.765Z,50.30
2023-04-16T16:06:54.654Z,50.47
2023-04-16T16:09:26.803Z,50.58
2023-04-16T16:11:54.998Z,50.98
2023-04-16T16:14:22.801Z,51.05
2023-04-16T16:16:50.138Z,51.29
2023-04-16T16:19:18.169Z,51.84
2023-04-16T16:21:45.262Z,51.93
2023-04-16T16:24:12.610Z,52.01
2023-04-16T16:26:39.661Z,52.53
2023-04-16T16:29:07.531Z,52.40
2023-04-16T16:31:34.915Z,52.70
2023-04-16T16:34:02.823Z,52.74
2023-04-16T16:36:30.246Z,52.69
2023-04-16T16:38:57.640Z,52.96
2023-04-16T16:41:24.590Z,53.08
2023-04-16T16:43:51.773Z,52.92
2023-04-16T16:46:18.819Z,53.07
2023-04-16T16:48:46.124Z,53.25
2023-04-16T16:51:13.445Z,53.57
2023-04-16T16:53:40.648Z,54.18
2023-04-16T16:56:07.887Z,54.31
2023-04-16T16:58:35.111Z,54.42
2023-04-16T17:01:02.250Z,54.75
2023-04-16T17:03:29.488Z,55.00
2023-04-16T17:05:56.780Z,55.22
2023-04-16T17:08:24.135Z,55.22
2023-04-16T17:10:52.033Z,55.38
2023-04-16T17:13:20.780Z,55.43
2023-04-16T17:15:48.132Z,55.86
2023-04-16T17:18:15.659Z,56.10
2023-04-16T17:20:42.968Z,56.66
2023-04-16T17:23:10.107Z,56.63
2023-04-16T17:25:36.933Z,56.68
2023-04-16T17:28:04.281Z,56.88
2023-04-16T17:30:32.280Z,56.97
2023-04-16T17:32:59.345Z,57.07
2023-04-16T17:35:26.735Z,57.23
2023-04-16T17:37:53.607Z,57.37
2023-04-16T17:40:20.846Z,57.71
2023-04-16T17:42:49.601Z,57.82
2023-04-16T17:45:16.699Z,57.96
2023-04-16T17:47:47.356Z,58.12
2023-04-16T17:50:14.628Z,58.30
2023-04-16T17:52:41.497Z,58.59
2023-04-16T17:55:09.276Z,58.81
2023-04-16T17:57:37.158Z,59.15
2023-04-16T18:00:11.880Z,59.46
2023-04-16T18:02:41.237Z,59.40
2023-04-16T18:05:09.370Z,59.35
2023-04-16T18:07:36.972Z,59.64
2023-04-16T18:10:04.321Z,60.02
2023-04-16T18:12:31.373Z,60.66
2023-04-16T18:14:58.428Z,60.79
2023-04-16T18:17:25.412Z,61.06
2023-04-16T18:19:52.439Z,61.22
2023-04-16T18:22:19.597Z,61.47
2023-04-16T18:24:46.863Z,61.77
2023-04-16T18:27:14.080Z,62.00
2023-04-16T18:29:43.760Z,62.18
2023-04-16T18:32:12.305Z,62.72
2023-04-16T18:34:39.926Z,62.72
2023-04-16T18:37:07.351Z,62.90
2023-04-16T18:39:34.203Z,63.19
2023-04-16T18:42:01.838Z,63.36
2023-04-16T18:44:28.713Z,63.67
2023-04-16T18:46:56.026Z,63.96
2023-04-16T18:49:22.981Z,63.90
2023-04-16T18:51:49.956Z,64.08
2023-04-16T18:54:17.514Z,64.41
2023-04-16T18:56:45.402Z,64.45
2023-04-16T18:59:13.046Z,64.61
2023-04-16T19:01:40.154Z,64.82
2023-04-16T19:04:07.491Z,64.80
2023-04-16T19:06:35.113Z,65.19
2023-04-16T19:09:02.402Z,65.28
2023-04-16T19:11:29.477Z,65.73
2023-04-16T19:13:57.760Z,65.66
2023-04-16T19:16:25.333Z,65.99
2023-04-16T19:18:52.471Z,66.04
2023-04-16T19:21:19.390Z,66.33
2023-04-16T19:23:46.627Z,66.45
2023-04-16T19:26:13.784Z,66.90
2023-04-16T19:28:42.882Z,67.19
2023-04-16T19:31:10.193Z,67.04
2023-04-16T19:33:37.694Z,67.27
2023-04-16T19:36:05.807Z,67.59
2023-04-16T19:38:33.081Z,67.65
2023-04-16T19:41:00.538Z,67.94
2023-04-16T19:43:30.724Z,67.89
2023-04-16T19:45:58.708Z,67.89
2023-04-16T19:48:26.429Z,68.02
2023-04-16T19:50:53.728Z,68.04
2023-04-16T19:53:21.974Z,68.24
2023-04-16T19:55:49.335Z,68.27
2023-04-16T19:58:16.754Z,68.58
2023-04-16T20:00:44.555Z,69.35
2023-04-16T20:03:12.172Z,69.02
2023-04-16T20:05:39.522Z,69.09
2023-04-16T20:08:07.030Z,69.11
2023-04-16T20:10:34.366Z,69.32
2023-04-16T20:13:01.364Z,69.36
2023-04-16T20:15:28.571Z,69.25
2023-04-16T20:17:56.703Z,69.55
2023-04-16T20:20:23.964Z,69.85
2023-04-16T20:22:51.293Z,70.03
2023-04-16T20:25:19.624Z,70.05
2023-04-16T20:27:46.924Z,70.20
2023-04-16T20:30:14.576Z,70.29
2023-04-16T20:32:41.883Z,70.38
2023-04-16T20:35:11.742Z,70.57
2023-04-16T20:37:39.197Z,70.70
2023-04-16T20:40:09.804Z,70.58
2023-04-16T20:42:36.699Z,70.70
2023-04-16T20:45:03.852Z,70.59
2023-04-16T20:47:30.970Z,70.96
2023-04-16T20:49:58.845Z,70.76
2023-04-16T20:52:25.769Z,70.94
2023-04-16T20:54:52.709Z,71.24
2023-04-16T20:57:19.757Z,71.34
2023-04-16T20:59:47.153Z,71.40
2023-04-16T21:02:15.028Z,71.71
2023-04-16T21:04:42.326Z,71.91
2023-04-16T21:07:09.271Z,72.13
2023-04-16T21:09:36.107Z,71.93
2023-04-16T21:12:02.947Z,72.21
2023-04-16T21:14:29.804Z,72.20
2023-04-16T21:16:56.628Z,72.23
2023-04-16T21:19:23.670Z,72.48
2023-04-16T21:21:51.379Z,72.76
2023-04-16T21:24:19.501Z,72.77
2023-04-16T21:26:47.578Z,72.92
2023-04-16T21:29:15.112Z,73.03
2023-04-16T21:31:43.102Z,73.22
2023-04-16T21:34:10.563Z,73.45
2023-04-16T21:36:37.555Z,73.49
2023-04-16T21:39:04.778Z,73.93
2023-04-16T21:41:31.823Z,74.12
2023-04-16T21:43:58.653Z,74.28
2023-04-16T21:46:26.964Z,74.32
2023-04-16T21:48:54.175Z,74.50
2023-04-16T21:51:29.587Z,74.56
2023-04-16T21:53:57.779Z,74.94
2023-04-16T21:56:26.577Z,74.77
2023-04-16T21:58:53.616Z,74.76
2023-04-16T22:01:20.918Z,74.81
2023-04-16T22:03:50.983Z,74.85
2023-04-16T22:06:18.531Z,74.98
2023-04-16T22:08:45.703Z,75.14
2023-04-16T22:11:12.931Z,75.34
2023-04-16T22:13:42.839Z,75.27
2023-04-16T22:16:11.750Z,75.20
2023-04-16T22:18:39.079Z,75.20
2023-04-16T22:21:06.743Z,75.25
2023-04-16T22:23:33.821Z,75.71
2023-04-16T22:26:03.126Z,76.24
2023-04-16T22:28:30.238Z,76.47
2023-04-16T22:30:57.707Z,76.50
2023-04-16T22:33:24.774Z,76.48
2023-04-16T22:35:51.786Z,76.60
2023-04-16T22:38:18.840Z,76.73
2023-04-16T22:40:48.686Z,76.80
2023-04-16T22:43:18.103Z,76.63
2023-04-16T22:45:46.626Z,76.84
2023-04-16T22:48:13.645Z,76.90
2023-04-16T22:50:41.722Z,76.93
2023-04-16T22:53:08.991Z,77.44
2023-04-16T22:55:36.031Z,77.46
2023-04-16T22:58:03.063Z,77.52
2023-04-16T23:00:30.045Z,77.45
2023-04-16T23:02:57.019Z,77.83
2023-04-16T23:05:24.442Z,77.80
2023-04-16T23:07:51.564Z,77.96
2023-04-16T23:10:18.400Z,77.91
2023-04-16T23:12:45.587Z,78.06
2023-04-16T23:15:12.651Z,78.55
2023-04-16T23:17:40.189Z,78.34
2023-04-16T23:20:10.287Z,78.65
2023-04-16T23:22:37.308Z,78.33
2023-04-16T23:25:04.757Z,78.42
2023-04-16T23:27:32.827Z,78.36
2023-04-16T23:29:59.905Z,78.49
2023-04-16T23:32:27.992Z,78.38
2023-04-16T23:34:54.985Z,78.38
2023-04-16T23:37:21.826Z,78.49
2023-04-16T23:39:48.705Z,78.46
2023-04-16T23:42:15.750Z,78.42
2023-04-16T23:44:42.652Z,78.36
2023-04-16T23:47:10.116Z,78.64
2023-04-16T23:49:37.605Z,79.10
2023-04-16T23:52:05.240Z,79.40
2023-04-16T23:54:32.064Z,79.46
2023-04-16T23:56:59.036Z,79.45
2023-04-16T23:59:26.172Z,79.34
